createdAt,value
2019-02-18T00:01:37.925Z,43.50
2019-02-18T00:04:11.598Z,42.50
2019-02-18T00:06:53.831Z,41.33
2019-02-18T00:09:27.508Z,42.87
2019-02-18T00:12:05.413Z,53.10
2019-02-18T00:14:42.328Z,45.83
2019-02-18T00:17:15.980Z,39.03
2019-02-18T00:19:49.650Z,39.60
2019-02-18T00:22:23.243Z,40.17
2019-02-18T00:24:59.401Z,33.77
2019-02-18T00:27:33.250Z,33.23
2019-02-18T00:30:10.070Z,34.97
2019-02-18T00:35:18.046Z,37.00
2019-02-18T00:37:54.661Z,30.17
2019-02-18T00:40:32.891Z,32.03
2019-02-18T00:43:08.130Z,31.07
2019-02-18T00:45:45.603Z,29.87
2019-02-18T00:48:22.074Z,29.33
2019-02-18T00:50:57.298Z,33.20
2019-02-18T00:53:30.745Z,31.20
2019-02-18T00:56:05.919Z,31.43
2019-02-18T00:58:43.759Z,35.90
2019-02-18T01:01:32.393Z,35.67
2019-02-18T01:04:08.380Z,39.30
2019-02-18T01:06:42.203Z,36.40
2019-02-18T01:09:18.638Z,36.10
2019-02-18T01:11:57.918Z,38.03
2019-02-18T01:14:31.525Z,37.53
2019-02-18T01:17:06.856Z,37.43
2019-02-18T01:19:40.442Z,39.97
2019-02-18T01:22:17.789Z,40.10
2019-02-18T01:24:55.040Z,38.63
2019-02-18T01:27:33.345Z,38.93
2019-02-18T01:30:14.359Z,40.10
2019-02-18T01:32:50.767Z,39.13
2019-02-18T01:35:24.430Z,43.80
2019-02-18T01:37:57.994Z,37.60
2019-02-18T01:40:33.144Z,40.83
2019-02-18T01:43:06.743Z,42.07
2019-02-18T01:45:40.459Z,42.93
2019-02-18T01:48:14.072Z,41.40
2019-02-18T01:50:51.820Z,43.90
2019-02-18T01:53:25.429Z,41.67
2019-02-18T01:56:00.670Z,39.03
2019-02-18T01:58:38.626Z,41.03
2019-02-18T02:01:12.062Z,35.73
2019-02-18T02:03:45.719Z,34.33
2019-02-18T02:06:21.045Z,33.23
2019-02-18T02:08:58.046Z,36.03
2019-02-18T02:11:31.834Z,34.13
2019-02-18T02:14:08.324Z,37.43
2019-02-18T02:16:45.072Z,35.97
2019-02-18T02:19:25.133Z,36.50
2019-02-18T02:21:58.735Z,34.80
2019-02-18T02:24:33.855Z,36.50
2019-02-18T02:27:07.439Z,39.63
2019-02-18T02:29:42.953Z,38.73
2019-02-18T02:32:16.182Z,38.53
2019-02-18T02:34:54.276Z,38.00
2019-02-18T02:37:30.560Z,41.67
2019-02-18T02:40:06.121Z,45.17
2019-02-18T02:42:41.075Z,43.50
2019-02-18T02:45:17.457Z,39.03
2019-02-18T02:47:53.966Z,35.70
2019-02-18T02:50:30.213Z,34.80
2019-02-18T02:53:03.921Z,37.20
2019-02-18T02:55:39.065Z,37.50
2019-02-18T02:58:17.518Z,42.07
2019-02-18T03:00:51.105Z,43.07
2019-02-18T03:03:24.581Z,41.93
2019-02-18T03:06:02.545Z,44.77
2019-02-18T03:08:41.815Z,44.00
2019-02-18T03:11:20.215Z,36.90
2019-02-18T03:13:57.903Z,36.17
2019-02-18T03:16:31.303Z,39.53
2019-02-18T03:19:04.774Z,42.33
2019-02-18T03:21:39.976Z,42.97
2019-02-18T03:24:15.897Z,45.17
2019-02-18T03:26:53.091Z,39.73
2019-02-18T03:29:51.949Z,37.33
2019-02-18T03:32:25.491Z,37.90
2019-02-18T03:38:05.353Z,45.43
2019-02-18T03:40:38.875Z,46.83
2019-02-18T03:43:12.480Z,45.93
2019-02-18T03:45:49.261Z,45.83
2019-02-18T03:48:22.808Z,47.90
2019-02-18T03:50:57.926Z,39.23
2019-02-18T03:53:34.396Z,42.57
2019-02-18T03:56:08.041Z,41.67
2019-02-18T03:58:41.830Z,41.20
2019-02-18T04:01:21.945Z,44.03
2019-02-18T04:04:02.753Z,44.13
2019-02-18T04:06:45.900Z,46.10
2019-02-18T04:09:24.317Z,47.87
2019-02-18T04:11:59.402Z,47.13
2019-02-18T04:14:32.913Z,48.27
2019-02-18T04:17:06.380Z,46.20
2019-02-18T04:19:39.994Z,44.23
2019-02-18T04:22:15.205Z,45.87
2019-02-18T04:24:50.457Z,42.90
2019-02-18T04:27:28.268Z,41.33
2019-02-18T04:30:03.770Z,38.30
2019-02-18T04:32:37.219Z,39.27
2019-02-18T04:35:15.844Z,37.20
2019-02-18T04:37:53.948Z,36.40
2019-02-18T04:40:29.074Z,39.30
2019-02-18T04:43:07.286Z,38.90
2019-02-18T04:45:40.973Z,38.03
2019-02-18T04:48:14.555Z,37.43
2019-02-18T04:50:52.110Z,41.27
2019-02-18T04:53:28.650Z,43.07
2019-02-18T04:56:05.557Z,44.13
2019-02-18T04:58:43.663Z,53.60
2019-02-18T05:01:17.256Z,43.83
2019-02-18T05:03:52.715Z,41.93
2019-02-18T05:06:28.777Z,38.40
2019-02-18T05:09:05.377Z,42.93
2019-02-18T05:11:42.418Z,38.03
2019-02-18T05:14:17.930Z,45.63
2019-02-18T05:16:55.127Z,45.30
2019-02-18T05:19:34.197Z,52.80
2019-02-18T05:22:07.867Z,50.10
2019-02-18T05:24:43.555Z,51.30
2019-02-18T05:27:19.883Z,60.77
2019-02-18T05:29:53.485Z,56.20
2019-02-18T05:32:28.701Z,52.20
2019-02-18T05:35:02.228Z,47.00
2019-02-18T05:37:38.958Z,50.80
2019-02-18T05:40:12.384Z,47.30
2019-02-18T05:42:45.929Z,48.00
2019-02-18T05:45:22.714Z,46.97
2019-02-18T05:47:57.025Z,43.77
2019-02-18T05:50:33.232Z,45.63
2019-02-18T05:53:08.526Z,50.30
2019-02-18T05:55:42.150Z,52.03
2019-02-18T05:58:18.680Z,55.47
2019-02-18T06:00:52.047Z,52.37
2019-02-18T06:03:25.499Z,51.53
2019-02-18T06:05:58.968Z,49.03
2019-02-18T06:08:32.405Z,53.93
2019-02-18T06:11:05.892Z,52.27
2019-02-18T06:13:39.328Z,55.87
2019-02-18T06:16:12.840Z,59.67
2019-02-18T06:18:46.277Z,52.33
2019-02-18T06:21:19.756Z,53.13
2019-02-18T06:23:53.347Z,52.20
2019-02-18T06:26:27.282Z,48.40
2019-02-18T06:29:00.768Z,45.87
2019-02-18T06:31:34.273Z,45.70
2019-02-18T06:34:07.765Z,44.37
2019-02-18T06:36:41.294Z,45.90
2019-02-18T06:39:15.795Z,51.23
2019-02-18T06:41:49.263Z,49.67
2019-02-18T06:44:24.344Z,53.70
2019-02-18T06:46:59.597Z,48.17
2019-02-18T06:49:33.224Z,48.60
2019-02-18T06:52:06.676Z,55.23
2019-02-18T06:54:40.160Z,55.97
2019-02-18T06:57:18.371Z,54.30
2019-02-18T06:59:53.231Z,51.97
2019-02-18T07:02:28.326Z,64.70
2019-02-18T07:05:06.355Z,61.60
2019-02-18T07:07:41.489Z,65.20
2019-02-18T07:10:16.663Z,63.13
2019-02-18T07:12:50.211Z,65.83
2019-02-18T07:15:23.643Z,60.83
2019-02-18T07:17:57.102Z,66.10
2019-02-18T07:20:30.520Z,70.80
2019-02-18T07:23:04.017Z,79.47
2019-02-18T07:25:37.449Z,68.90
2019-02-18T07:28:10.908Z,69.97
2019-02-18T07:30:44.351Z,69.60
2019-02-18T07:33:18.328Z,67.17
2019-02-18T07:35:51.886Z,66.70
2019-02-18T07:38:25.310Z,79.23
2019-02-18T07:40:58.779Z,75.97
2019-02-18T07:43:32.393Z,80.90
2019-02-18T07:46:05.859Z,78.20
2019-02-18T07:48:39.294Z,76.60
2019-02-18T07:51:12.760Z,80.30
2019-02-18T07:53:46.221Z,82.83
2019-02-18T07:56:19.656Z,69.93
2019-02-18T07:58:54.079Z,77.93
2019-02-18T08:01:27.491Z,76.00
2019-02-18T08:04:00.993Z,77.60
2019-02-18T08:06:34.471Z,74.57
2019-02-18T08:09:07.926Z,74.57
2019-02-18T08:11:41.348Z,72.70
2019-02-18T08:14:14.801Z,67.67
2019-02-18T08:16:48.230Z,64.53
2019-02-18T08:19:21.720Z,67.30
2019-02-18T08:22:00.196Z,64.67
2019-02-18T08:24:33.594Z,65.23
2019-02-18T08:27:07.058Z,70.53
2019-02-18T08:29:40.486Z,71.60
2019-02-18T08:32:15.569Z,72.50
2019-02-18T08:34:49.004Z,73.20
2019-02-18T08:37:22.483Z,74.10
2019-02-18T08:39:55.920Z,76.83
2019-02-18T08:42:29.380Z,76.27
2019-02-18T08:45:02.846Z,83.83
2019-02-18T08:47:38.057Z,78.97
2019-02-18T08:50:12.497Z,74.53
2019-02-18T08:52:45.932Z,81.03
2019-02-18T08:55:19.410Z,83.97
2019-02-18T08:57:52.852Z,83.00
2019-02-18T09:00:26.317Z,82.43
2019-02-18T09:02:59.764Z,82.60
2019-02-18T09:05:33.247Z,89.43
2019-02-18T09:08:06.679Z,84.73
2019-02-18T09:10:40.154Z,88.77
2019-02-18T09:13:13.631Z,95.03
2019-02-18T09:15:47.071Z,102.17
2019-02-18T09:18:22.189Z,94.00
2019-02-18T09:20:55.615Z,88.47
2019-02-18T09:23:39.936Z,81.07
2019-02-18T09:26:15.276Z,71.57
2019-02-18T09:28:51.835Z,73.27
2019-02-18T09:31:26.932Z,66.80
2019-02-18T09:34:00.412Z,62.27
2019-02-18T09:36:33.848Z,59.70
2019-02-18T09:39:15.988Z,63.40
2019-02-18T09:41:49.420Z,63.10
2019-02-18T09:44:22.893Z,60.97
2019-02-18T09:46:56.329Z,59.40
2019-02-18T09:49:29.804Z,54.73
2019-02-18T09:52:03.269Z,57.57
2019-02-18T09:54:36.713Z,60.47
2019-02-18T09:57:10.185Z,52.70
2019-02-18T09:59:43.615Z,53.33
2019-02-18T10:02:17.088Z,47.13
2019-02-18T10:04:50.513Z,47.23
2019-02-18T10:07:24.019Z,50.53
2019-02-18T10:10:13.524Z,47.20
2019-02-18T10:12:42.501Z,44.33
2019-02-18T10:15:15.973Z,49.30
2019-02-18T10:17:49.492Z,47.53
2019-02-18T10:20:22.930Z,44.83
2019-02-18T10:22:56.422Z,39.37
2019-02-18T10:25:29.873Z,32.67
2019-02-18T10:28:03.350Z,33.60
2019-02-18T10:30:36.861Z,31.67
2019-02-18T10:33:10.311Z,35.10
2019-02-18T10:35:46.099Z,34.73
2019-02-18T10:38:19.532Z,31.80
2019-02-18T10:40:53.003Z,33.93
2019-02-18T10:43:32.351Z,30.80
2019-02-18T10:46:01.556Z,31.17
2019-02-18T10:48:35.016Z,27.90
2019-02-18T10:51:08.705Z,26.07
2019-02-18T10:53:42.178Z,27.40
2019-02-18T10:56:16.664Z,28.20
2019-02-18T10:58:50.447Z,27.17
2019-02-18T11:01:23.949Z,31.60
2019-02-18T11:03:57.385Z,31.20
2019-02-18T11:06:30.896Z,29.73
2019-02-18T11:09:06.369Z,28.87
2019-02-18T11:11:39.916Z,32.03
2019-02-18T11:14:13.349Z,30.87
2019-02-18T11:16:46.810Z,29.53
2019-02-18T11:19:20.276Z,28.93
2019-02-18T11:21:53.704Z,29.97
2019-02-18T11:24:27.173Z,26.93
2019-02-18T11:27:01.927Z,26.03
2019-02-18T11:29:35.394Z,25.97
2019-02-18T11:32:10.257Z,27.67
2019-02-18T11:34:43.687Z,30.37
2019-02-18T11:37:17.448Z,27.17
2019-02-18T11:39:50.909Z,28.67
2019-02-18T11:42:24.375Z,29.00
2019-02-18T11:44:57.796Z,29.40
2019-02-18T11:47:31.590Z,28.63
2019-02-18T11:50:07.461Z,29.57
2019-02-18T11:52:40.942Z,27.90
2019-02-18T11:55:14.744Z,26.00
2019-02-18T11:57:48.622Z,27.87
2019-02-18T12:00:22.057Z,29.03
2019-02-18T12:03:02.793Z,27.47
2019-02-18T12:05:30.594Z,29.00
2019-02-18T12:08:04.065Z,27.23
2019-02-18T12:10:37.526Z,26.53
2019-02-18T12:13:14.711Z,25.43
2019-02-18T12:15:48.183Z,23.40
2019-02-18T12:18:21.664Z,23.87
2019-02-18T12:20:55.085Z,25.47
2019-02-18T12:23:28.552Z,23.20
2019-02-18T12:26:02.004Z,26.43
2019-02-18T12:28:35.428Z,23.07
2019-02-18T12:31:09.165Z,22.93
2019-02-18T12:33:42.630Z,20.67
2019-02-18T12:36:16.056Z,19.60
2019-02-18T12:38:49.492Z,20.83
2019-02-18T12:41:22.965Z,21.07
2019-02-18T12:43:57.185Z,19.40
2019-02-18T12:46:43.492Z,20.07
2019-02-18T12:49:16.925Z,17.40
2019-02-18T12:51:50.690Z,17.07
2019-02-18T12:54:24.123Z,19.17
2019-02-18T12:56:57.587Z,21.07
2019-02-18T12:59:31.246Z,20.03
2019-02-18T13:02:04.991Z,21.03
2019-02-18T13:04:38.715Z,23.20
2019-02-18T13:07:12.173Z,21.13
2019-02-18T13:09:45.672Z,22.43
2019-02-18T13:12:20.412Z,21.43
2019-02-18T13:14:53.867Z,20.53
2019-02-18T13:17:27.709Z,22.67
2019-02-18T13:20:04.399Z,22.33
2019-02-18T13:22:37.834Z,23.40
2019-02-18T13:25:11.319Z,26.07
2019-02-18T13:27:44.786Z,26.27
2019-02-18T13:30:20.092Z,24.43
2019-02-18T13:32:53.527Z,24.50
2019-02-18T13:35:26.993Z,27.00
2019-02-18T13:38:00.415Z,24.20
2019-02-18T13:40:35.837Z,22.77
2019-02-18T13:43:09.340Z,23.63
2019-02-18T13:45:42.829Z,23.70
2019-02-18T13:48:16.269Z,23.20
2019-02-18T13:50:50.056Z,22.60
2019-02-18T13:53:23.509Z,20.63
2019-02-18T13:55:56.968Z,20.40
2019-02-18T13:58:30.484Z,18.97
2019-02-18T14:01:07.605Z,21.47
2019-02-18T14:03:41.083Z,20.50
2019-02-18T14:06:14.524Z,20.73
2019-02-18T14:08:48.025Z,20.27
2019-02-18T14:11:21.457Z,20.63
2019-02-18T14:13:56.588Z,19.60
2019-02-18T14:16:30.124Z,19.83
2019-02-18T14:19:03.566Z,19.67
2019-02-18T14:21:37.032Z,19.23
2019-02-18T14:24:11.414Z,19.40
2019-02-18T14:26:44.947Z,19.07
2019-02-18T14:29:18.387Z,19.70
2019-02-18T14:31:52.830Z,18.87
2019-02-18T14:34:27.749Z,19.70
2019-02-18T14:37:02.072Z,19.27
2019-02-18T14:39:36.521Z,19.00
2019-02-18T14:42:11.220Z,20.17
2019-02-18T14:44:46.732Z,20.10
2019-02-18T14:47:21.257Z,20.77
2019-02-18T14:49:55.682Z,21.00
2019-02-18T14:52:29.220Z,21.30
2019-02-18T14:55:02.648Z,20.47
2019-02-18T14:57:37.524Z,22.33
2019-02-18T15:00:18.193Z,22.10
2019-02-18T15:02:53.496Z,21.07
2019-02-18T15:05:27.454Z,23.27
2019-02-18T15:08:00.897Z,21.80
2019-02-18T15:10:34.403Z,21.87
2019-02-18T15:13:07.835Z,20.90
2019-02-18T15:15:41.302Z,22.60
2019-02-18T15:18:14.857Z,23.53
2019-02-18T15:20:48.307Z,22.90
2019-02-18T15:23:21.876Z,21.70
2019-02-18T15:25:55.338Z,23.33
2019-02-18T15:28:29.153Z,22.13
2019-02-18T15:31:02.589Z,23.50
2019-02-18T15:33:37.501Z,22.13
2019-02-18T15:36:10.952Z,25.00
2019-02-18T15:38:48.476Z,31.33
2019-02-18T15:41:21.921Z,30.70
2019-02-18T15:43:55.520Z,32.20
2019-02-18T15:46:38.784Z,30.63
2019-02-18T15:49:12.264Z,28.57
2019-02-18T15:55:13.108Z,25.60
2019-02-18T15:57:46.541Z,24.07
2019-02-18T16:00:25.719Z,22.50
2019-02-18T16:02:59.166Z,21.87
2019-02-18T16:05:32.735Z,20.27
2019-02-18T16:08:06.225Z,19.77
2019-02-18T16:10:42.334Z,18.57
2019-02-18T16:13:15.930Z,17.83
2019-02-18T16:15:49.374Z,18.10
2019-02-18T16:18:22.861Z,18.00
2019-02-18T16:20:56.394Z,18.60
2019-02-18T16:23:29.914Z,17.53
2019-02-18T16:26:03.423Z,18.03
2019-02-18T16:28:36.954Z,17.23
2019-02-18T16:31:10.404Z,20.57
2019-02-18T16:33:43.827Z,21.43
2019-02-18T16:36:18.961Z,22.10
2019-02-18T16:38:52.428Z,25.47
2019-02-18T16:41:25.880Z,30.70
2019-02-18T16:46:42.829Z,29.80
2019-02-18T16:49:16.580Z,33.10
2019-02-18T16:51:50.028Z,36.37
2019-02-18T16:54:23.488Z,43.63
2019-02-18T16:56:56.934Z,42.67
2019-02-18T16:59:30.400Z,44.20
2019-02-18T17:02:03.900Z,44.13
2019-02-18T17:04:37.392Z,42.63
2019-02-18T17:07:11.083Z,49.93
2019-02-18T17:09:44.541Z,56.27
2019-02-18T17:12:18.054Z,58.27
2019-02-18T17:14:51.491Z,65.83
2019-02-18T17:17:24.972Z,69.93
2019-02-18T17:19:58.448Z,74.43
2019-02-18T17:22:32.036Z,60.00
2019-02-18T17:25:10.091Z,60.03
2019-02-18T17:27:43.576Z,46.93
2019-02-18T17:30:17.039Z,49.97
2019-02-18T17:32:50.489Z,48.07
2019-02-18T17:35:23.981Z,44.93
2019-02-18T17:37:57.412Z,46.20
2019-02-18T17:40:31.285Z,43.37
2019-02-18T17:43:04.735Z,45.43
2019-02-18T17:45:38.190Z,44.40
2019-02-18T17:48:14.329Z,43.43
2019-02-18T17:50:48.100Z,48.37
2019-02-18T17:53:21.536Z,45.97
2019-02-18T17:55:54.996Z,47.10
2019-02-18T17:58:28.433Z,45.27
2019-02-18T18:01:01.894Z,46.47
2019-02-18T18:03:35.370Z,47.87
2019-02-18T18:06:08.839Z,45.60
2019-02-18T18:08:42.255Z,45.00
2019-02-18T18:11:17.488Z,46.27
2019-02-18T18:13:50.824Z,45.37
2019-02-18T18:16:24.316Z,47.23
2019-02-18T18:18:57.781Z,49.30
2019-02-18T18:21:34.527Z,53.50
2019-02-18T18:24:08.349Z,59.00
2019-02-18T18:26:43.489Z,60.47
2019-02-18T18:29:16.922Z,58.83
2019-02-18T18:31:50.395Z,56.77
2019-02-18T18:34:23.842Z,57.43
2019-02-18T18:36:57.314Z,58.10
2019-02-18T18:39:30.813Z,58.93
2019-02-18T18:42:05.633Z,53.00
2019-02-18T18:44:39.135Z,57.33
2019-02-18T18:47:12.605Z,55.60
2019-02-18T18:49:47.227Z,54.47
2019-02-18T18:52:20.700Z,54.10
2019-02-18T18:54:54.211Z,57.40
2019-02-18T18:57:27.968Z,56.37
2019-02-18T19:00:01.405Z,57.73
2019-02-18T19:02:34.876Z,57.03
2019-02-18T19:05:08.785Z,60.07
2019-02-18T19:07:42.557Z,59.77
2019-02-18T19:10:16.031Z,57.00
2019-02-18T19:12:51.394Z,54.63
2019-02-18T19:15:24.884Z,56.90
2019-02-18T19:17:58.793Z,62.17
2019-02-18T19:20:32.315Z,58.00
2019-02-18T19:23:05.751Z,59.70
2019-02-18T19:25:39.236Z,58.80
2019-02-18T19:28:12.718Z,53.53
2019-02-18T19:30:47.788Z,52.70
2019-02-18T19:33:22.269Z,51.03
2019-02-18T19:35:57.105Z,52.47
2019-02-18T19:38:30.567Z,50.33
2019-02-18T19:41:04.125Z,48.90
2019-02-18T19:43:37.640Z,52.77
2019-02-18T19:46:13.300Z,55.30
2019-02-18T19:48:48.177Z,56.47
2019-02-18T19:51:21.619Z,56.77
2019-02-18T19:53:55.100Z,56.67
2019-02-18T19:56:29.807Z,58.60
2019-02-18T19:59:03.341Z,58.00
2019-02-18T20:01:36.827Z,57.53
2019-02-18T20:04:10.344Z,53.97
2019-02-18T20:06:43.873Z,63.93
2019-02-18T20:09:17.320Z,62.23
2019-02-18T20:11:51.151Z,61.50
2019-02-18T20:14:24.730Z,75.70
2019-02-18T20:16:58.214Z,63.90
2019-02-18T20:19:31.650Z,67.67
2019-02-18T20:22:05.540Z,70.33
2019-02-18T20:24:38.983Z,79.73
2019-02-18T20:27:12.434Z,81.43
2019-02-18T20:29:45.940Z,76.23
2019-02-18T20:32:21.230Z,70.27
2019-02-18T20:34:54.850Z,65.60
2019-02-18T20:37:28.345Z,69.53
2019-02-18T20:40:01.901Z,59.30
2019-02-18T20:42:38.666Z,54.63
2019-02-18T20:45:13.181Z,55.80
2019-02-18T20:47:46.683Z,55.03
2019-02-18T20:50:32.319Z,59.57
2019-02-18T20:53:06.464Z,54.67
2019-02-18T20:55:40.775Z,53.33
2019-02-18T20:58:14.420Z,53.10
2019-02-18T21:00:54.023Z,58.07
2019-02-18T21:03:27.494Z,58.67
2019-02-18T21:06:01.086Z,62.10
2019-02-18T21:08:36.358Z,62.37
2019-02-18T21:11:09.955Z,64.03
2019-02-18T21:13:43.834Z,62.40
2019-02-18T21:16:17.338Z,62.43
2019-02-18T21:18:52.421Z,64.27
2019-02-18T21:21:25.942Z,66.50
2019-02-18T21:23:59.852Z,62.10
2019-02-18T21:26:33.443Z,57.17
2019-02-18T21:29:06.904Z,63.30
2019-02-18T21:31:40.417Z,61.30
2019-02-18T21:34:13.906Z,70.93
2019-02-18T21:36:47.381Z,65.90
2019-02-18T21:39:20.821Z,69.57
2019-02-18T21:41:54.321Z,57.90
2019-02-18T21:44:27.779Z,55.17
2019-02-18T21:47:01.800Z,54.73
2019-02-18T21:49:38.561Z,54.73
2019-02-18T21:52:12.298Z,55.83
2019-02-18T21:54:45.736Z,57.53
2019-02-18T21:57:19.642Z,58.60
2019-02-18T21:59:53.093Z,61.63
2019-02-18T22:02:31.558Z,61.10
2019-02-18T22:05:11.403Z,58.57
2019-02-18T22:07:41.013Z,60.87
2019-02-18T22:10:16.328Z,56.80
2019-02-18T22:12:49.962Z,55.73
2019-02-18T22:15:26.569Z,56.93
2019-02-18T22:18:03.230Z,55.60
2019-02-18T22:20:38.888Z,57.73
2019-02-18T22:23:12.381Z,61.73
2019-02-18T22:25:47.732Z,62.13
2019-02-18T22:28:27.234Z,62.60
2019-02-18T22:31:01.112Z,70.47
2019-02-18T22:33:36.977Z,63.67
2019-02-18T22:36:12.879Z,63.30
2019-02-18T22:38:46.814Z,62.27
2019-02-18T22:41:20.343Z,55.27
2019-02-18T22:43:55.569Z,56.63
2019-02-18T22:46:28.973Z,51.93
2019-02-18T22:49:06.800Z,55.30
2019-02-18T22:51:41.104Z,58.80
2019-02-18T22:54:14.607Z,52.07
2019-02-18T22:56:54.127Z,42.10
2019-02-18T22:59:29.263Z,47.97
2019-02-18T23:02:02.905Z,45.17
2019-02-18T23:04:36.579Z,41.57
2019-02-18T23:07:14.703Z,44.40
2019-02-18T23:09:52.693Z,44.77
2019-02-18T23:12:27.234Z,48.53
2019-02-18T23:15:00.883Z,42.07
2019-02-18T23:17:37.672Z,49.77
2019-02-18T23:20:20.008Z,39.37
2019-02-18T23:22:56.817Z,39.17
2019-02-18T23:25:33.410Z,39.20
2019-02-18T23:28:08.589Z,48.27
2019-02-18T23:30:48.021Z,44.27
2019-02-18T23:33:28.859Z,44.93
2019-02-18T23:36:05.460Z,43.40
2019-02-18T23:38:38.872Z,43.37
2019-02-18T23:41:12.648Z,47.27
2019-02-18T23:43:54.932Z,44.00
2019-02-18T23:46:32.569Z,49.73
2019-02-18T23:49:06.254Z,45.37
2019-02-18T23:51:44.351Z,47.17
2019-02-18T23:54:17.953Z,41.67
2019-02-18T23:56:53.111Z,45.10
2019-02-18T23:59:28.360Z,48.13
